Time,TemperatureF,DewpointF,PressureIn,WindDirection,WindDirectionDegrees,WindSpeedMPH,WindSpeedGustMPH,Humidity,HourlyPrecipIn,Conditions,Clouds,dailyrainin,SoftwareType,DateUTC
2013-02-04 10:50:00,58.3,42.2,29.41,SW,221,5.0,8.0,55,0.00,,,0.00,Wunderground v.1.15,2013-02-04 16:50:00,
2013-02-04 10:55:00,58.8,42.2,29.41,SSW,207,5.0,8.0,54,0.00,,,0.00,Wunderground v.1.15,2013-02-04 16:55:00,
2013-02-04 11:05:00,59.6,41.9,29.41,South,186,4.0,4.0,52,0.00,,,0.00,Wunderground v.1.15,2013-02-04 17:05:00,
2013-02-04 11:10:00,59.8,42.6,29.40,SSW,212,5.0,7.0,53,0.00,,,0.00,Wunderground v.1.15,2013-02-04 17:10:00,
2013-02-04 11:15:00,60.4,42.2,29.40,West,262,5.0,5.0,51,0.00,,,0.00,Wunderground v.1.15,2013-02-04 17:15:00,
2013-02-04 11:25:00,60.8,42.0,29.39,WSW,249,7.0,7.0,50,0.00,,,0.00,Wunderground v.1.15,2013-02-04 17:25:00,
2013-02-04 11:30:00,61.1,42.3,29.39,WNW,282,8.0,9.0,50,0.00,,,0.00,Wunderground v.1.15,2013-02-04 17:30:00,
2013-02-04 11:40:00,61.5,41.6,29.38,WSW,255,7.0,9.0,48,0.00,,,0.00,Wunderground v.1.15,2013-02-04 17:40:00,
2013-02-04 11:50:00,61.6,41.7,29.38,West,267,7.0,10.0,48,0.00,,,0.00,Wunderground v.1.15,2013-02-04 17:50:00,
2013-02-04 12:00:00,62.0,42.1,29.38,West,259,7.0,12.0,48,0.00,,,0.00,Wunderground v.1.15,2013-02-04 18:00:00,
2013-02-04 12:10:00,61.8,41.3,29.37,WSW,248,7.0,7.0,47,0.00,,,0.00,Wunderground v.1.15,2013-02-04 18:10:00,
2013-02-04 12:20:00,62.4,41.3,29.37,West,276,5.0,10.0,46,0.00,,,0.00,Wunderground v.1.15,2013-02-04 18:20:00,
2013-02-04 12:30:00,62.9,41.2,29.37,WSW,253,6.0,10.0,45,0.00,,,0.00,Wunderground v.1.15,2013-02-04 18:30:00,
2013-02-04 12:35:00,63.1,40.8,29.36,WNW,287,6.0,10.0,44,0.00,,,0.00,Wunderground v.1.15,2013-02-04 18:35:00,
2013-02-04 12:45:00,64.3,41.9,29.36,WNW,300,5.0,10.0,44,0.00,,,0.00,Wunderground v.1.15,2013-02-04 18:45:00,
2013-02-04 12:55:00,64.4,41.4,29.36,SSW,207,5.0,10.0,43,0.00,,,0.00,Wunderground v.1.15,2013-02-04 18:55:00,
2013-02-04 13:00:00,64.1,41.1,29.36,WSW,252,4.0,4.0,43,0.00,,,0.00,Wunderground v.1.15,2013-02-04 19:00:00,
2013-02-04 13:10:00,65.1,40.8,29.35,WNW,282,3.0,10.0,41,0.00,,,0.00,Wunderground v.1.15,2013-02-04 19:10:00,
2013-02-04 13:20:00,65.0,40.1,29.35,NW,305,3.0,10.0,40,0.00,,,0.00,Wunderground v.1.15,2013-02-04 19:20:00,
2013-02-04 13:25:00,64.9,40.6,29.35,West,273,4.0,10.0,41,0.00,,,0.00,Wunderground v.1.15,2013-02-04 19:25:00,
2013-02-04 13:35:00,66.1,40.4,29.34,WSW,254,2.0,10.0,39,0.00,,,0.00,Wunderground v.1.15,2013-02-04 19:35:00,
2013-02-04 13:45:00,65.6,38.6,29.34,NW,307,6.0,10.0,37,0.00,,,0.00,Wunderground v.1.15,2013-02-04 19:45:00,
2013-02-04 13:55:00,65.6,38.6,29.34,NW,304,3.0,10.0,37,0.00,,,0.00,Wunderground v.1.15,2013-02-04 19:55:00,
2013-02-04 14:01:00,65.8,37.4,29.34,NW,307,4.0,10.0,35,0.00,,,0.00,Wunderground v.1.15,2013-02-04 20:01:00,
2013-02-04 14:10:00,66.4,37.9,29.34,West,271,5.0,10.0,35,0.00,,,0.00,Wunderground v.1.15,2013-02-04 20:10:00,
2013-02-04 14:20:00,66.1,36.9,29.33,North,356,6.0,10.0,34,0.00,,,0.00,Wunderground v.1.15,2013-02-04 20:20:00,
2013-02-04 14:30:00,65.7,36.5,29.33,West,274,6.0,6.0,34,0.00,,,0.00,Wunderground v.1.15,2013-02-04 20:30:00,
2013-02-04 14:40:00,65.8,35.1,29.33,NW,313,6.0,10.0,32,0.00,,,0.00,Wunderground v.1.15,2013-02-04 20:40:00,
2013-02-04 14:50:00,65.8,35.9,29.33,NW,321,6.0,10.0,33,0.00,,,0.00,Wunderground v.1.15,2013-02-04 20:50:00,
2013-02-04 15:05:00,66.5,35.7,29.33,WNW,290,5.0,10.0,32,0.00,,,0.00,Wunderground v.1.15,2013-02-04 21:05:00,
2013-02-04 15:15:00,66.0,34.5,29.33,West,281,8.0,8.0,31,0.00,,,0.00,Wunderground v.1.15,2013-02-04 21:15:00,
2013-02-04 15:20:00,66.4,34.0,29.34,NW,311,6.0,10.0,30,0.00,,,0.00,Wunderground v.1.15,2013-02-04 21:20:00,
2013-02-04 15:30:00,65.8,34.3,29.34,West,280,6.0,10.0,31,0.00,,,0.00,Wunderground v.1.15,2013-02-04 21:30:00,
2013-02-04 15:40:00,66.1,33.7,29.34,NNW,340,5.0,10.0,30,0.00,,,0.00,Wunderground v.1.15,2013-02-04 21:40:00,
2013-02-04 15:50:00,65.8,33.5,29.34,NNE,20,7.0,10.0,30,0.00,,,0.00,Wunderground v.1.15,2013-02-04 21:50:00,
2013-02-04 15:55:00,65.8,33.5,29.34,NW,309,7.0,10.0,30,0.00,,,0.00,Wunderground v.1.15,2013-02-04 21:55:00,
2013-02-04 16:00:00,65.6,33.3,29.35,NW,317,7.0,7.0,30,0.00,,,0.00,Wunderground v.1.15,2013-02-04 22:00:00,
2013-02-04 16:10:00,65.5,34.0,29.35,North,356,7.0,10.0,31,0.00,,,0.00,Wunderground v.1.15,2013-02-04 22:10:00,
2013-02-04 16:20:00,64.9,32.7,29.35,NNW,338,8.0,8.0,30,0.00,,,0.00,Wunderground v.1.15,2013-02-04 22:20:00,
2013-02-04 16:30:00,64.9,32.7,29.36,North,353,5.0,10.0,30,0.00,,,0.00,Wunderground v.1.15,2013-02-04 22:30:00,
2013-02-04 16:35:00,64.7,33.3,29.36,NNW,330,5.0,10.0,31,0.00,,,0.00,Wunderground v.1.15,2013-02-04 22:35:00,
2013-02-04 16:45:00,64.4,32.3,29.36,NE,44,6.0,10.0,30,0.00,,,0.00,Wunderground v.1.15,2013-02-04 22:45:00,
2013-02-04 17:00:00,63.7,30.8,29.36,NE,44,7.0,7.0,29,0.00,,,0.00,Wunderground v.1.15,2013-02-04 23:00:00,
2013-02-04 17:10:00,63.3,31.3,29.37,North,6,5.0,10.0,30,0.00,,,0.00,Wunderground v.1.15,2013-02-04 23:10:00,
2013-02-04 17:20:00,62.9,31.8,29.37,North,1,5.0,10.0,31,0.00,,,0.00,Wunderground v.1.15,2013-02-04 23:20:00,
2013-02-04 17:30:00,62.5,33.0,29.37,NNE,13,4.0,4.0,33,0.00,,,0.00,Wunderground v.1.15,2013-02-04 23:30:00,
2013-02-04 17:40:00,61.7,33.7,29.38,NE,37,4.0,4.0,35,0.00,,,0.00,Wunderground v.1.15,2013-02-04 23:40:00,
2013-02-04 17:45:00,61.2,34.0,29.38,NNW,330,3.0,10.0,36,0.00,,,0.00,Wunderground v.1.15,2013-02-04 23:45:00,
2013-02-04 17:55:00,60.3,33.9,29.38,NNW,345,3.0,10.0,37,0.00,,,0.00,Wunderground v.1.15,2013-02-04 23:55:00,
2013-02-04 18:00:00,59.9,34.2,29.39,North,9,3.0,10.0,38,0.00,,,0.00,Wunderground v.1.15,2013-02-05 00:00:00,
2013-02-04 18:45:00,56.7,35.6,29.41,NW,325,2.0,2.0,45,0.00,,,0.00,Wunderground v.1.15,2013-02-05 00:45:00,
2013-02-04 19:01:00,56.1,35.6,29.41,NNW,345,2.0,2.0,46,0.00,,,0.00,Wunderground v.1.15,2013-02-05 01:01:00,
2013-02-04 19:10:00,55.7,35.8,29.41,NNW,330,2.0,2.0,47,0.00,,,0.00,Wunderground v.1.15,2013-02-05 01:10:00,
2013-02-04 19:25:00,55.1,35.7,29.42,NNW,345,3.0,4.0,48,0.00,,,0.00,Wunderground v.1.15,2013-02-05 01:25:00,
2013-02-04 19:35:00,54.8,34.9,29.42,NNW,348,3.0,10.0,47,0.00,,,0.00,Wunderground v.1.15,2013-02-05 01:35:00,
2013-02-04 19:45:00,54.5,35.2,29.42,NNE,27,2.0,10.0,48,0.00,,,0.00,Wunderground v.1.15,2013-02-05 01:45:00,
2013-02-04 19:55:00,54.2,34.9,29.43,NE,38,2.0,10.0,48,0.00,,,0.00,Wunderground v.1.15,2013-02-05 01:55:00,
2013-02-04 20:00:00,53.9,34.6,29.43,NE,39,2.0,10.0,48,0.00,,,0.00,Wunderground v.1.15,2013-02-05 02:00:00,
2013-02-04 20:10:00,53.4,34.7,29.43,NNE,15,3.0,10.0,49,0.00,,,0.00,Wunderground v.1.15,2013-02-05 02:10:00,
2013-02-04 20:20:00,52.9,34.8,29.44,North,356,4.0,10.0,50,0.00,,,0.00,Wunderground v.1.15,2013-02-05 02:20:00,
2013-02-04 20:30:00,52.5,34.9,29.44,NNW,337,5.0,5.0,51,0.00,,,0.00,Wunderground v.1.15,2013-02-05 02:30:00,
2013-02-04 20:35:00,52.3,34.7,29.44,NNW,341,4.0,10.0,51,0.00,,,0.00,Wunderground v.1.15,2013-02-05 02:35:00,
2013-02-04 20:45:00,52.0,34.9,29.45,NNE,13,4.0,10.0,52,0.00,,,0.00,Wunderground v.1.15,2013-02-05 02:45:00,
2013-02-04 20:55:00,51.5,34.9,29.45,NW,315,4.0,10.0,53,0.00,,,0.00,Wunderground v.1.15,2013-02-05 02:55:00,
2013-02-04 21:00:00,51.3,34.7,29.45,NNE,29,3.0,10.0,53,0.00,,,0.00,Wunderground v.1.15,2013-02-05 03:00:00,
2013-02-04 21:20:00,50.6,35.0,29.46,North,3,3.0,10.0,55,0.00,,,0.00,Wunderground v.1.15,2013-02-05 03:20:00,
2013-02-04 21:30:00,50.3,34.7,29.46,NNE,27,3.0,10.0,55,0.00,,,0.00,Wunderground v.1.15,2013-02-05 03:30:00,
2013-02-04 21:45:00,49.7,35.1,29.47,NE,50,3.0,10.0,57,0.00,,,0.00,Wunderground v.1.15,2013-02-05 03:45:00,
2013-02-04 21:55:00,49.1,34.9,29.47,ENE,71,2.0,10.0,58,0.00,,,0.00,Wunderground v.1.15,2013-02-05 03:55:00,
2013-02-04 22:05:00,48.6,34.9,29.47,ENE,58,1.0,10.0,59,0.00,,,0.00,Wunderground v.1.15,2013-02-05 04:05:00,
2013-02-04 22:10:00,48.4,34.7,29.47,NE,48,1.0,10.0,59,0.00,,,0.00,Wunderground v.1.15,2013-02-05 04:10:00,
2013-02-04 22:20:00,48.1,34.9,29.47,NE,44,2.0,10.0,60,0.00,,,0.00,Wunderground v.1.15,2013-02-05 04:20:00,
2013-02-04 22:25:00,47.8,34.6,29.46,ENE,58,2.0,2.0,60,0.00,,,0.00,Wunderground v.1.15,2013-02-05 04:25:00,
2013-02-04 22:35:00,47.2,34.8,29.47,ENE,60,1.0,10.0,62,0.00,,,0.00,Wunderground v.1.15,2013-02-05 04:35:00,
2013-02-04 22:40:00,46.9,34.6,29.47,ENE,58,1.0,10.0,62,0.00,,,0.00,Wunderground v.1.15,2013-02-05 04:40:00,
2013-02-04 22:50:00,46.6,34.7,29.47,North,11,1.0,10.0,63,0.00,,,0.00,Wunderground v.1.15,2013-02-05 04:50:00,
2013-02-04 22:55:00,46.5,34.6,29.47,North,5,2.0,10.0,63,0.00,,,0.00,Wunderground v.1.15,2013-02-05 04:55:00,
2013-02-04 23:05:00,46.2,34.7,29.48,NW,316,1.0,1.0,64,0.00,,,0.00,Wunderground v.1.15,2013-02-05 05:05:00,
2013-02-04 23:10:00,45.9,34.4,29.48,NW,312,1.0,10.0,64,0.00,,,0.00,Wunderground v.1.15,2013-02-05 05:10:00,
2013-02-04 23:15:00,45.5,34.4,29.48,NW,321,1.0,10.0,65,0.00,,,0.00,Wunderground v.1.15,2013-02-05 05:15:00,
2013-02-04 23:20:00,45.5,34.4,29.48,NNW,334,2.0,10.0,65,0.00,,,0.00,Wunderground v.1.15,2013-02-05 05:20:00,
2013-02-04 23:25:00,45.5,34.4,29.48,NW,311,3.0,10.0,65,0.00,,,0.00,Wunderground v.1.15,2013-02-05 05:25:00,
2013-02-04 23:35:00,45.4,34.3,29.48,NNE,16,3.0,3.0,65,0.00,,,0.00,Wunderground v.1.15,2013-02-05 05:35:00,
2013-02-04 23:45:00,45.1,34.4,29.48,NE,42,3.0,10.0,66,0.00,,,0.00,Wunderground v.1.15,2013-02-05 05:45:00,
2013-02-04 23:50:00,44.9,34.2,29.48,NNE,23,3.0,10.0,66,0.00,,,0.00,Wunderground v.1.15,2013-02-05 05:50:00,